Saint George, Utah
Current Conditions -  °F | °C
As of 9:15 AM on Saturday 25 Oct 2014 (Local Time) from KSGU Reporting Station
Clear Clear  
Wind Chill: 57°   Ceiling: Unl
Heat Index: 57°   Visibility: 10mi
Dew Point: 34°   Wind: 0mph
Humidity: 41%   Direction: NA
Pressure: 30.16"   Gusts: NA
Location:  37.08°N, 113.6°W
Report Text: KSGU 251515Z AUTO 00000KT 10SM CLR 14/01 A3016 RMK AO1
Loading
Personal Weather Stations






























Interactive Weather Map New forecast layout! Learn more

10-Day Weather Forecast

Advertisements
Track Severe Weather on mobile